Time;durP1;ratioP1;P1;durP2;ratioP2;P2;SDS_P1;SDS_P2;PMS_P1;PMS_P2;Temp;Humidity;BMP_temperature;BMP_pressure;BME280_temperature;BME280_humidity;BME280_pressure;Samples;Min_cycle;Max_cycle;Signal;HPM_P1;HPM_P2
2023/11/29 00:01:59;;;;;;;11.35;6.50;;;-0.90;99.90;;;;;;6208393;23;20042;-56
2023/11/29 00:04:25;;;;;;;13.13;6.03;;;-0.90;99.90;;;;;;6207501;23;20001;-57
2023/11/29 00:06:50;;;;;;;14.52;7.15;;;-0.90;99.90;;;;;;6207498;23;20000;-59
2023/11/29 00:09:16;;;;;;;14.43;6.75;;;-0.90;99.90;;;;;;6208195;23;20477;-57
2023/11/29 00:11:41;;;;;;;14.25;6.63;;;-0.80;99.90;;;;;;6208771;23;20004;-55
2023/11/29 00:14:07;;;;;;;11.57;6.55;;;-0.70;99.90;;;;;;6208571;22;20418;-59
2023/11/29 00:16:33;;;;;;;11.85;6.50;;;-0.70;99.90;;;;;;6207610;23;20099;-60
2023/11/29 00:18:58;;;;;;;11.82;6.50;;;-0.70;99.90;;;;;;6207836;23;20287;-56
2023/11/29 00:21:27;;;;;;;12.85;6.22;;;-0.70;99.90;;;;;;6208893;23;20001;-56
2023/11/29 00:23:52;;;;;;;12.25;5.88;;;-0.70;99.90;;;;;;6208454;23;20020;-54
2023/11/29 00:26:22;;;;;;;12.63;6.32;;;-0.60;99.90;;;;;;6208557;23;20057;-59
2023/11/29 00:28:48;;;;;;;13.00;6.30;;;-0.60;99.90;;;;;;6208137;23;20005;-55
2023/11/29 00:31:14;;;;;;;11.30;6.03;;;-0.60;99.90;;;;;;6208100;23;20005;-59
2023/11/29 00:33:39;;;;;;;10.93;5.88;;;-0.60;99.90;;;;;;6207901;23;20012;-59
2023/11/29 00:36:06;;;;;;;15.48;6.63;;;-0.60;99.90;;;;;;6208224;23;19997;-56
2023/11/29 00:38:32;;;;;;;12.98;5.97;;;-0.60;99.90;;;;;;6207981;23;20427;-59
2023/11/29 00:40:58;;;;;;;11.20;6.10;;;-0.60;99.90;;;;;;6208016;23;20007;-59
2023/11/29 00:43:23;;;;;;;11.20;6.07;;;-0.50;99.90;;;;;;6207319;23;20009;-56
2023/11/29 00:45:49;;;;;;;11.13;6.03;;;-0.50;99.90;;;;;;6207743;23;20011;-57
2023/11/29 00:48:15;;;;;;;9.57;4.82;;;-0.50;99.90;;;;;;6207397;23;20001;-56
2023/11/29 00:50:41;;;;;;;9.63;5.30;;;-0.60;99.90;;;;;;6207581;23;20083;-57
2023/11/29 00:53:08;;;;;;;9.85;5.28;;;-0.50;99.90;;;;;;6208045;23;20084;-57
2023/11/29 00:55:33;;;;;;;11.60;5.57;;;-0.50;99.90;;;;;;6205494;23;20099;-55
2023/11/29 00:57:59;;;;;;;9.82;5.60;;;-0.60;99.90;;;;;;6207007;23;20035;-57
2023/11/29 01:00:24;;;;;;;9.48;4.50;;;-0.50;99.90;;;;;;6207851;23;20083;-57
2023/11/29 01:02:50;;;;;;;11.25;4.90;;;-0.50;99.90;;;;;;6208009;23;20008;-56
2023/11/29 01:05:15;;;;;;;9.38;5.28;;;-0.60;99.90;;;;;;6208112;23;20011;-54
2023/11/29 01:07:41;;;;;;;13.50;5.30;;;-0.60;99.90;;;;;;6208504;23;19996;-58
2023/11/29 01:10:07;;;;;;;9.98;5.15;;;-0.60;99.90;;;;;;6207989;23;20403;-56
2023/11/29 01:12:32;;;;;;;9.90;5.20;;;-0.60;99.90;;;;;;6207653;23;20097;-58
2023/11/29 01:14:58;;;;;;;8.80;5.03;;;-0.70;99.90;;;;;;6208157;23;20004;-57
2023/11/29 01:17:24;;;;;;;13.88;6.20;;;-0.70;99.90;;;;;;6208162;23;20008;-56
2023/11/29 01:19:50;;;;;;;8.88;5.13;;;-0.70;99.90;;;;;;6207424;23;20020;-56
2023/11/29 01:22:15;;;;;;;9.32;4.95;;;-0.70;99.90;;;;;;6206948;23;20012;-56
2023/11/29 01:24:41;;;;;;;12.88;5.60;;;-0.70;99.90;;;;;;6207875;23;20001;-54
2023/11/29 01:27:07;;;;;;;8.07;4.57;;;-0.70;99.90;;;;;;6208022;23;20431;-55
2023/11/29 01:29:33;;;;;;;10.95;5.50;;;-0.70;99.90;;;;;;6207149;23;20014;-56
2023/11/29 01:31:59;;;;;;;8.88;5.05;;;-0.70;99.90;;;;;;6207954;23;20004;-58
2023/11/29 01:34:24;;;;;;;10.80;5.80;;;-0.60;99.90;;;;;;6208123;23;20427;-58
2023/11/29 01:36:50;;;;;;;13.52;6.03;;;-0.50;99.90;;;;;;6208357;23;20569;-55
2023/11/29 01:39:15;;;;;;;10.63;5.25;;;-0.50;99.90;;;;;;6207854;23;20012;-57
2023/11/29 01:41:42;;;;;;;8.95;5.13;;;-0.50;99.90;;;;;;6208145;23;20331;-58
2023/11/29 01:44:07;;;;;;;11.20;4.68;;;-0.50;99.90;;;;;;6208626;23;20316;-57
2023/11/29 01:46:34;;;;;;;8.75;4.63;;;-0.50;99.90;;;;;;6205139;23;20043;-59
2023/11/29 01:49:00;;;;;;;10.32;5.10;;;-0.40;99.90;;;;;;6207227;23;20076;-59
2023/11/29 01:51:26;;;;;;;9.60;4.88;;;-0.40;99.90;;;;;;6207455;23;20339;-56
2023/11/29 01:53:52;;;;;;;10.75;5.40;;;-0.40;99.90;;;;;;6208257;23;20388;-56
2023/11/29 01:56:21;;;;;;;10.00;5.80;;;-0.30;99.90;;;;;;6207623;23;20000;-58
2023/11/29 01:58:46;;;;;;;14.18;5.75;;;-0.30;99.90;;;;;;6191134;22;20000;-55
2023/11/29 02:01:14;;;;;;;13.57;5.60;;;-0.30;99.90;;;;;;6207650;23;20019;-57
2023/11/29 02:03:39;;;;;;;10.70;5.38;;;-0.20;99.90;;;;;;6313263;22;20008;-55
2023/11/29 02:06:06;;;;;;;10.43;5.28;;;-0.20;99.90;;;;;;6207953;23;20005;-56
2023/11/29 02:08:33;;;;;;;8.93;5.00;;;-0.10;99.90;;;;;;6207639;23;20009;-58
2023/11/29 02:10:59;;;;;;;9.23;4.65;;;-0.10;99.90;;;;;;6207793;23;20447;-57
2023/11/29 02:13:24;;;;;;;10.55;5.85;;;-0.10;99.90;;;;;;6207995;23;20051;-58
2023/11/29 02:15:50;;;;;;;9.10;5.07;;;-0.10;99.90;;;;;;6208156;23;20091;-56
2023/11/29 02:18:15;;;;;;;8.93;4.95;;;-0.10;99.90;;;;;;6208097;23;20011;-57
2023/11/29 02:20:42;;;;;;;12.75;5.28;;;-0.10;99.90;;;;;;6208083;23;20769;-54
2023/11/29 02:23:22;;;;;;;9.98;5.07;;;-0.10;99.90;;;;;;6206989;23;20008;-58
2023/11/29 02:25:47;;;;;;;8.48;4.43;;;-0.10;99.90;;;;;;6208101;23;19997;-56
2023/11/29 02:28:13;;;;;;;8.40;4.80;;;-0.10;99.90;;;;;;6207679;23;20419;-57
2023/11/29 02:30:38;;;;;;;13.70;6.28;;;-0.10;99.90;;;;;;6206971;23;20004;-55
2023/11/29 02:33:04;;;;;;;8.75;4.97;;;-0.10;99.90;;;;;;6207994;23;20011;-58
2023/11/29 02:35:30;;;;;;;10.35;5.50;;;-0.10;99.90;;;;;;6208153;23;20037;-59
2023/11/29 02:37:55;;;;;;;11.15;5.38;;;-0.10;99.90;;;;;;6208154;23;20008;-57
2023/11/29 02:40:22;;;;;;;9.77;4.88;;;-0.10;99.90;;;;;;6207462;23;20407;-55
2023/11/29 02:42:48;;;;;;;8.88;5.18;;;-0.10;99.90;;;;;;6207356;23;20011;-57
2023/11/29 02:45:13;;;;;;;7.05;4.47;;;-0.10;99.90;;;;;;6311916;22;20087;-58
2023/11/29 02:47:39;;;;;;;9.07;5.15;;;-0.10;99.90;;;;;;6207903;23;20371;-56
2023/11/29 02:50:05;;;;;;;9.38;5.05;;;-0.10;99.90;;;;;;6207788;23;20079;-54
2023/11/29 02:52:31;;;;;;;10.57;5.32;;;-0.10;99.90;;;;;;6206997;23;20004;-55
2023/11/29 02:54:57;;;;;;;11.20;5.32;;;-0.20;99.90;;;;;;6206974;23;20016;-57
2023/11/29 02:57:22;;;;;;;10.88;5.22;;;-0.20;99.90;;;;;;6207590;23;20005;-57
2023/11/29 02:59:48;;;;;;;10.00;4.90;;;-0.20;99.90;;;;;;6207223;23;20339;-57
2023/11/29 03:02:14;;;;;;;16.15;6.10;;;-0.20;99.90;;;;;;6208558;22;20017;-60
2023/11/29 03:04:40;;;;;;;9.75;4.78;;;-0.20;99.90;;;;;;6207952;23;20007;-57
2023/11/29 03:07:06;;;;;;;13.10;5.63;;;-0.10;99.90;;;;;;6207623;23;20072;-56
2023/11/29 03:09:32;;;;;;;9.65;5.60;;;-0.10;99.90;;;;;;6207533;23;20007;-56
2023/11/29 03:11:57;;;;;;;7.97;5.47;;;-0.10;99.90;;;;;;6208936;22;20419;-57
2023/11/29 03:14:25;;;;;;;11.73;5.70;;;-0.10;99.90;;;;;;6208720;23;20046;-57
2023/11/29 03:16:51;;;;;;;10.23;5.15;;;-0.10;99.90;;;;;;6208434;23;20138;-59
2023/11/29 03:19:16;;;;;;;9.93;5.63;;;0.00;99.90;;;;;;6208577;23;20805;-54
2023/11/29 03:21:42;;;;;;;10.93;5.60;;;0.00;99.90;;;;;;6208047;23;20015;-59
2023/11/29 03:24:08;;;;;;;9.68;4.68;;;0.00;99.90;;;;;;6210116;23;20001;-56
2023/11/29 03:26:33;;;;;;;11.00;5.97;;;0.00;99.90;;;;;;6208860;23;20001;-58
2023/11/29 03:28:59;;;;;;;9.23;4.63;;;0.00;99.90;;;;;;6208558;23;20057;-55
2023/11/29 03:31:24;;;;;;;9.95;5.70;;;0.00;99.90;;;;;;6209197;23;20377;-54
2023/11/29 03:33:50;;;;;;;10.13;5.30;;;0.10;99.90;;;;;;6208921;23;20047;-57
2023/11/29 03:36:15;;;;;;;12.15;5.20;;;0.10;99.90;;;;;;6208613;23;20001;-56
2023/11/29 03:38:41;;;;;;;10.63;5.55;;;0.10;99.90;;;;;;6208027;23;20009;-57
2023/11/29 03:41:08;;;;;;;9.85;5.70;;;0.20;99.90;;;;;;6208686;23;20109;-56
2023/11/29 03:43:34;;;;;;;12.20;5.88;;;0.20;99.90;;;;;;6208809;23;20044;-56
2023/11/29 03:45:59;;;;;;;8.50;5.63;;;0.20;99.90;;;;;;6209131;23;20008;-57
2023/11/29 03:48:25;;;;;;;9.43;5.35;;;0.20;99.90;;;;;;6208305;23;20000;-57
2023/11/29 03:50:50;;;;;;;11.45;5.78;;;0.30;99.90;;;;;;6208560;23;20004;-59
2023/11/29 03:53:16;;;;;;;12.10;6.05;;;0.30;99.90;;;;;;6187836;22;20020;-85
2023/11/29 03:55:42;;;;;;;11.18;6.15;;;0.20;99.90;;;;;;6289728;22;20116;-85
2023/11/29 03:58:07;;;;;;;10.13;5.18;;;0.30;99.90;;;;;;6291734;22;20015;-86
2023/11/29 04:00:33;;;;;;;12.02;6.10;;;0.20;99.90;;;;;;6191805;22;20013;-86
2023/11/29 04:02:59;;;;;;;10.95;5.88;;;0.10;99.90;;;;;;6296773;22;20009;-86
2023/11/29 04:05:25;;;;;;;12.38;6.72;;;0.10;99.90;;;;;;6295786;22;20020;-85
2023/11/29 04:07:50;;;;;;;14.45;5.10;;;0.00;99.90;;;;;;6293805;22;20001;-85
2023/11/29 04:10:16;;;;;;;14.10;6.30;;;0.00;99.90;;;;;;6292809;22;20005;-85
2023/11/29 04:12:42;;;;;;;10.85;5.63;;;0.00;99.90;;;;;;6291920;22;20019;-86
2023/11/29 04:15:08;;;;;;;13.52;6.05;;;0.00;99.90;;;;;;6289071;22;20012;-86
2023/11/29 04:17:34;;;;;;;10.63;6.22;;;0.00;99.90;;;;;;6291635;22;20144;-87
2023/11/29 04:19:59;;;;;;;14.40;6.63;;;0.00;99.90;;;;;;6303984;22;20020;-86
2023/11/29 04:22:25;;;;;;;12.45;6.38;;;0.10;99.90;;;;;;6312196;22;20005;-86
2023/11/29 04:24:51;;;;;;;10.75;6.25;;;0.00;99.90;;;;;;6293887;22;20039;-86
2023/11/29 04:27:17;;;;;;;11.75;6.43;;;0.00;99.90;;;;;;6289439;22;20015;-86
2023/11/29 04:29:42;;;;;;;14.00;6.55;;;0.10;99.90;;;;;;6287644;22;20467;-86
2023/11/29 04:32:08;;;;;;;18.05;7.38;;;0.00;99.90;;;;;;6288219;22;20006;-86
2023/11/29 04:34:34;;;;;;;13.82;7.25;;;0.10;99.90;;;;;;6288692;22;20342;-87
2023/11/29 04:37:00;;;;;;;14.52;7.03;;;0.10;99.90;;;;;;6291631;22;20005;-84
2023/11/29 04:39:25;;;;;;;16.92;7.55;;;0.10;99.90;;;;;;6291806;22;20070;-85
2023/11/29 04:41:51;;;;;;;14.73;7.63;;;0.10;99.90;;;;;;6291967;22;20009;-85
2023/11/29 04:44:17;;;;;;;14.68;7.40;;;0.10;99.90;;;;;;6291076;22;20453;-86
2023/11/29 04:46:44;;;;;;;12.93;7.47;;;0.10;99.90;;;;;;6288465;22;20009;-86
2023/11/29 04:49:10;;;;;;;14.77;7.20;;;0.10;99.90;;;;;;6293411;22;20001;-86
2023/11/29 04:51:35;;;;;;;16.48;7.22;;;0.10;99.90;;;;;;6289459;22;20013;-86
2023/11/29 04:54:01;;;;;;;14.82;8.00;;;0.10;99.90;;;;;;6289319;22;20024;-85
2023/11/29 04:56:27;;;;;;;16.38;7.78;;;0.10;99.90;;;;;;6290318;22;20016;-86
2023/11/29 04:58:53;;;;;;;15.38;8.30;;;0.20;99.90;;;;;;6290705;22;20009;-86
2023/11/29 05:01:19;;;;;;;15.32;7.25;;;0.20;99.90;;;;;;6289565;22;20335;-86
2023/11/29 05:03:45;;;;;;;16.23;8.00;;;0.20;99.90;;;;;;6290081;22;20065;-84
2023/11/29 05:06:11;;;;;;;15.80;8.50;;;0.30;99.90;;;;;;6289763;22;20009;-86
2023/11/29 05:08:36;;;;;;;17.55;7.30;;;0.30;99.90;;;;;;6287880;22;20051;-86
2023/11/29 05:11:07;;;;;;;18.80;7.35;;;0.30;99.90;;;;;;6289143;22;20015;-86
2023/11/29 05:13:33;;;;;;;20.02;8.43;;;0.30;99.90;;;;;;6288833;22;20017;-87
2023/11/29 05:15:59;;;;;;;18.58;8.43;;;0.30;99.90;;;;;;6288748;22;20460;-86
2023/11/29 05:18:24;;;;;;;14.88;8.00;;;0.40;99.90;;;;;;6291645;22;20029;-86
2023/11/29 05:20:50;;;;;;;17.88;7.95;;;0.40;99.90;;;;;;6292658;22;20016;-86
2023/11/29 05:23:16;;;;;;;17.25;8.13;;;0.40;99.90;;;;;;6291779;22;20020;-85
2023/11/29 05:25:42;;;;;;;15.52;8.38;;;0.40;99.90;;;;;;6288773;22;19997;-86
2023/11/29 05:28:08;;;;;;;15.57;7.82;;;0.40;99.90;;;;;;6291288;22;20015;-85
2023/11/29 05:30:35;;;;;;;14.32;8.32;;;0.50;99.90;;;;;;6288342;22;20032;-86
2023/11/29 05:33:03;;;;;;;17.38;9.00;;;0.50;99.90;;;;;;6288014;22;20096;-85
2023/11/29 05:35:30;;;;;;;14.32;7.72;;;0.50;99.90;;;;;;6289034;22;20024;-85
2023/11/29 05:37:56;;;;;;;18.65;9.02;;;0.40;99.90;;;;;;6287665;22;20005;-85
2023/11/29 05:40:22;;;;;;;21.02;8.70;;;0.40;99.90;;;;;;6290002;22;20006;-85
2023/11/29 05:42:47;;;;;;;20.08;9.95;;;0.40;99.90;;;;;;6289215;22;20013;-85
2023/11/29 05:45:13;;;;;;;17.88;8.68;;;0.40;99.90;;;;;;6288601;22;20008;-85
2023/11/29 05:47:39;;;;;;;18.73;9.45;;;0.30;99.90;;;;;;6287834;22;20364;-86
2023/11/29 05:50:06;;;;;;;19.00;8.85;;;0.30;99.90;;;;;;6287941;22;20074;-86
2023/11/29 05:52:32;;;;;;;19.90;9.70;;;0.30;99.90;;;;;;6286524;22;20013;-86
2023/11/29 05:55:00;;;;;;;16.27;8.18;;;0.30;99.90;;;;;;6287756;22;20013;-86
2023/11/29 05:57:27;;;;;;;22.42;9.38;;;0.30;99.90;;;;;;6289078;22;20009;-87
2023/11/29 05:59:55;;;;;;;17.60;8.88;;;0.20;99.90;;;;;;6287415;22;20013;-86
2023/11/29 06:02:22;;;;;;;17.45;9.57;;;0.30;99.90;;;;;;6287869;22;20009;-86
2023/11/29 06:04:47;;;;;;;19.88;8.57;;;0.20;99.90;;;;;;6289285;22;20015;-87
2023/11/29 06:07:13;;;;;;;31.60;13.18;;;0.30;99.90;;;;;;6289896;22;20032;-86
2023/11/29 06:09:39;;;;;;;74.60;24.83;;;0.30;99.90;;;;;;6293710;22;20050;-86
2023/11/29 06:12:07;;;;;;;26.75;13.45;;;0.30;99.90;;;;;;6294376;22;20034;-85
2023/11/29 06:14:34;;;;;;;60.53;25.85;;;0.30;99.90;;;;;;6308593;22;20009;-86
2023/11/29 06:17:00;;;;;;;25.30;13.05;;;0.30;99.90;;;;;;6297205;22;20009;-86
2023/11/29 06:19:25;;;;;;;42.88;18.02;;;0.30;99.90;;;;;;6287398;22;20088;-86
2023/11/29 06:21:54;;;;;;;52.53;25.45;;;0.30;99.90;;;;;;6287491;22;20009;-86
2023/11/29 06:24:20;;;;;;;30.88;17.70;;;0.20;99.90;;;;;;6285940;22;20031;-85
2023/11/29 06:26:45;;;;;;;21.85;11.63;;;0.20;99.90;;;;;;6291002;22;20330;-86
2023/11/29 06:29:11;;;;;;;23.02;11.07;;;0.20;99.90;;;;;;6290968;22;20005;-86
2023/11/29 06:31:37;;;;;;;19.63;12.02;;;0.30;99.90;;;;;;6290067;22;20023;-86
2023/11/29 06:34:05;;;;;;;20.95;9.95;;;0.30;99.90;;;;;;6291890;22;20005;-87
2023/11/29 06:36:31;;;;;;;22.35;10.85;;;0.30;99.90;;;;;;6292828;22;20008;-85
2023/11/29 06:38:57;;;;;;;20.75;8.95;;;0.40;99.90;;;;;;6292541;22;20012;-86
2023/11/29 06:41:23;;;;;;;21.48;9.88;;;0.40;99.90;;;;;;6292764;22;20005;-85
2023/11/29 06:43:49;;;;;;;19.30;9.77;;;0.40;99.90;;;;;;6294006;22;20058;-85
2023/11/29 06:46:14;;;;;;;16.73;8.82;;;0.50;99.90;;;;;;6287205;22;19998;-86
2023/11/29 06:48:40;;;;;;;21.02;9.02;;;0.50;99.90;;;;;;6296023;22;20080;-86
2023/11/29 06:51:06;;;;;;;21.08;10.00;;;0.50;99.90;;;;;;6260905;22;20465;-56
2023/11/29 06:53:33;;;;;;;18.17;9.73;;;0.50;99.90;;;;;;6176967;22;20001;-58
2023/11/29 06:55:59;;;;;;;22.30;9.68;;;0.50;99.90;;;;;;6176640;23;20080;-56
2023/11/29 06:58:24;;;;;;;17.77;9.80;;;0.50;99.90;;;;;;6177381;22;20080;-56
2023/11/29 07:00:50;;;;;;;29.15;11.23;;;0.60;99.90;;;;;;6280832;22;20059;-52
2023/11/29 07:03:16;;;;;;;21.60;10.80;;;0.60;99.90;;;;;;6176974;22;20013;-56
2023/11/29 07:05:42;;;;;;;27.52;13.68;;;0.60;99.90;;;;;;6176830;22;20437;-56
2023/11/29 07:08:07;;;;;;;27.58;11.40;;;0.60;99.90;;;;;;6177482;22;20004;-55
2023/11/29 07:10:33;;;;;;;24.02;12.02;;;0.60;99.90;;;;;;6177052;22;20006;-56
2023/11/29 07:13:00;;;;;;;26.05;11.05;;;0.60;99.90;;;;;;6176607;22;20743;-54
2023/11/29 07:15:26;;;;;;;21.20;10.50;;;0.60;99.90;;;;;;6177452;22;20740;-56
2023/11/29 07:17:53;;;;;;;22.35;10.75;;;0.60;99.90;;;;;;6177496;22;20085;-56
2023/11/29 07:20:19;;;;;;;25.65;10.98;;;0.70;99.90;;;;;;6175629;22;20009;-55
2023/11/29 07:22:44;;;;;;;29.42;13.65;;;0.70;99.90;;;;;;6177666;23;20013;-57
2023/11/29 07:25:10;;;;;;;27.52;12.07;;;0.70;99.90;;;;;;6177077;22;20050;-56
2023/11/29 07:27:37;;;;;;;30.27;13.43;;;0.70;99.90;;;;;;6177148;22;20448;-55
2023/11/29 07:30:04;;;;;;;32.63;13.85;;;0.70;99.90;;;;;;6176356;23;20421;-56
2023/11/29 07:32:30;;;;;;;49.88;18.25;;;0.70;99.90;;;;;;6176889;23;20035;-57
2023/11/29 07:34:55;;;;;;;27.38;13.10;;;0.70;99.90;;;;;;6176524;23;20419;-57
2023/11/29 07:37:21;;;;;;;28.65;11.30;;;0.70;99.90;;;;;;6176273;22;20001;-53
2023/11/29 07:39:47;;;;;;;29.05;13.82;;;0.80;99.90;;;;;;6176497;22;20025;-53
2023/11/29 07:42:14;;;;;;;24.70;11.50;;;0.80;99.90;;;;;;6177024;23;20016;-55
2023/11/29 07:44:39;;;;;;;25.08;9.82;;;0.80;99.90;;;;;;6177049;23;20384;-55
2023/11/29 07:47:06;;;;;;;25.08;10.68;;;0.90;99.90;;;;;;6177271;22;20005;-55
2023/11/29 07:49:31;;;;;;;24.85;11.65;;;0.90;99.90;;;;;;6175950;23;20013;-55
2023/11/29 07:51:58;;;;;;;28.67;12.43;;;0.90;99.90;;;;;;6177136;22;20019;-55
2023/11/29 07:54:24;;;;;;;41.13;16.38;;;1.00;99.90;;;;;;6176273;23;20452;-56
2023/11/29 07:56:50;;;;;;;24.55;11.13;;;1.00;99.90;;;;;;6177618;23;20009;-54
2023/11/29 07:59:15;;;;;;;58.25;23.23;;;1.10;99.90;;;;;;6177672;23;20001;-54
2023/11/29 08:01:41;;;;;;;29.55;13.55;;;1.10;99.90;;;;;;6155347;22;20064;-57
2023/11/29 08:04:07;;;;;;;20.85;10.38;;;1.20;99.90;;;;;;6214710;22;20566;-58
2023/11/29 08:06:33;;;;;;;21.50;8.90;;;1.30;99.90;;;;;;6205705;22;20027;-56
2023/11/29 08:09:00;;;;;;;32.13;14.07;;;1.30;99.90;;;;;;6177471;22;20332;-54
2023/11/29 08:11:26;;;;;;;20.40;10.43;;;1.30;99.90;;;;;;6178200;22;20005;-56
2023/11/29 08:13:52;;;;;;;27.30;11.52;;;1.30;99.90;;;;;;6178185;22;20001;-56
2023/11/29 08:16:18;;;;;;;22.23;10.18;;;1.30;99.90;;;;;;6178008;23;20005;-53
2023/11/29 08:18:45;;;;;;;19.85;9.27;;;1.30;99.90;;;;;;6176952;23;20009;-55
2023/11/29 08:21:10;;;;;;;23.08;10.80;;;1.30;99.90;;;;;;6177872;22;20011;-57
2023/11/29 08:23:36;;;;;;;19.92;9.70;;;1.20;99.90;;;;;;6178388;22;20523;-58
2023/11/29 08:26:02;;;;;;;23.17;12.07;;;1.20;99.90;;;;;;6178208;22;20447;-56
2023/11/29 08:28:28;;;;;;;28.30;12.27;;;1.20;99.90;;;;;;6177814;23;20047;-55
2023/11/29 08:30:53;;;;;;;21.13;10.30;;;1.20;99.90;;;;;;6178016;22;20009;-56
2023/11/29 08:33:19;;;;;;;25.80;10.13;;;1.20;99.90;;;;;;6178194;22;20068;-57
2023/11/29 08:35:47;;;;;;;23.73;10.70;;;1.20;99.90;;;;;;6177775;22;20036;-58
2023/11/29 08:38:13;;;;;;;21.63;9.50;;;1.20;99.90;;;;;;6281942;22;20047;-56
2023/11/29 08:40:39;;;;;;;25.88;11.38;;;1.20;99.90;;;;;;6177661;23;20009;-56
2023/11/29 08:43:06;;;;;;;20.13;10.38;;;1.20;99.90;;;;;;6178179;22;20082;-54
2023/11/29 08:45:32;;;;;;;34.17;14.27;;;1.20;99.90;;;;;;6176982;23;20431;-56
2023/11/29 08:47:58;;;;;;;61.45;24.05;;;1.20;99.90;;;;;;6177542;23;20004;-54
2023/11/29 08:50:24;;;;;;;64.30;25.52;;;1.30;99.90;;;;;;6175887;23;20008;-58
2023/11/29 08:52:51;;;;;;;32.97;14.50;;;1.30;99.90;;;;;;6178175;22;20421;-56
2023/11/29 08:55:16;;;;;;;50.17;18.42;;;1.30;99.90;;;;;;6178262;22;20001;-53
2023/11/29 08:57:42;;;;;;;30.88;14.27;;;1.30;99.90;;;;;;6178235;23;20012;-58
2023/11/29 09:00:11;;;;;;;25.35;13.15;;;1.30;99.90;;;;;;6177696;22;20078;-57
2023/11/29 09:02:37;;;;;;;20.88;9.70;;;1.40;99.90;;;;;;6154233;22;20025;-53
2023/11/29 09:05:03;;;;;;;31.02;12.98;;;1.40;99.90;;;;;;6177311;22;20093;-54
2023/11/29 09:07:29;;;;;;;29.13;13.88;;;1.40;99.90;;;;;;6176834;23;20029;-55
2023/11/29 09:09:56;;;;;;;39.35;16.38;;;1.50;99.90;;;;;;6178306;22;20028;-56
2023/11/29 09:12:25;;;;;;;29.95;12.60;;;1.50;99.90;;;;;;6178441;22;20311;-52
2023/11/29 09:14:57;;;;;;;23.90;11.77;;;1.50;99.90;;;;;;6177491;22;20005;-56
2023/11/29 09:17:23;;;;;;;28.77;13.15;;;1.60;99.90;;;;;;6178086;23;20319;-56
2023/11/29 09:19:50;;;;;;;30.92;14.05;;;1.70;99.90;;;;;;6177243;23;20001;-56
2023/11/29 09:22:17;;;;;;;17.75;8.80;;;1.70;99.90;;;;;;6178254;23;20009;-55
2023/11/29 09:24:43;;;;;;;23.55;10.32;;;1.70;99.90;;;;;;6178133;23;20005;-57
2023/11/29 09:27:09;;;;;;;17.88;7.88;;;1.80;99.90;;;;;;6176966;23;20005;-52
2023/11/29 09:29:34;;;;;;;23.15;8.68;;;1.90;99.90;;;;;;6178324;22;20076;-56
2023/11/29 09:32:00;;;;;;;19.33;8.77;;;2.00;99.90;;;;;;6176779;22;20008;-55
2023/11/29 09:34:26;;;;;;;12.80;6.22;;;2.00;99.90;;;;;;6177089;23;20432;-54
2023/11/29 09:36:54;;;;;;;15.88;7.85;;;2.10;99.90;;;;;;6176176;22;20039;-55
2023/11/29 09:39:20;;;;;;;23.98;7.28;;;2.20;99.90;;;;;;6177108;23;20475;-55
2023/11/29 09:41:46;;;;;;;23.15;9.60;;;2.20;99.90;;;;;;6176797;22;20005;-57
2023/11/29 09:44:13;;;;;;;19.25;7.88;;;2.30;99.90;;;;;;6177227;23;20008;-56
2023/11/29 09:46:39;;;;;;;11.43;5.47;;;2.30;99.90;;;;;;6176788;23;20012;-52
2023/11/29 09:49:05;;;;;;;20.25;8.23;;;2.40;99.90;;;;;;6177321;22;20017;-54
2023/11/29 09:51:31;;;;;;;25.73;8.10;;;2.40;99.90;;;;;;6177798;22;20306;-52
2023/11/29 09:53:57;;;;;;;20.55;9.88;;;2.40;99.90;;;;;;6177679;23;20096;-57
2023/11/29 09:56:23;;;;;;;33.25;12.93;;;2.40;99.90;;;;;;6177219;23;20058;-53
2023/11/29 09:58:49;;;;;;;21.80;8.50;;;2.40;99.90;;;;;;6177218;22;20001;-55
2023/11/29 10:01:15;;;;;;;35.13;11.00;;;2.50;99.90;;;;;;6177095;23;20040;-56
2023/11/29 10:03:42;;;;;;;45.75;11.15;;;2.40;99.90;;;;;;6195268;22;20043;-55
2023/11/29 10:06:08;;;;;;;13.45;7.07;;;2.40;99.90;;;;;;6176550;23;20009;-54
2023/11/29 10:08:34;;;;;;;15.75;6.30;;;2.50;99.90;;;;;;6177284;23;20057;-54
2023/11/29 10:11:01;;;;;;;11.90;5.93;;;2.50;99.90;;;;;;6177407;23;20001;-51
2023/11/29 10:13:28;;;;;;;17.38;6.75;;;2.50;99.90;;;;;;6177610;22;20088;-54
2023/11/29 10:15:55;;;;;;;14.63;5.80;;;2.50;99.90;;;;;;6177132;23;20007;-55
2023/11/29 10:18:21;;;;;;;8.23;3.97;;;2.60;99.90;;;;;;6175826;23;20001;-54
2023/11/29 10:20:49;;;;;;;10.13;5.63;;;2.60;99.90;;;;;;6177783;22;20314;-52
2023/11/29 10:23:14;;;;;;;12.52;6.47;;;2.60;99.90;;;;;;6177508;23;20001;-55
2023/11/29 10:25:44;;;;;;;16.42;7.35;;;2.60;99.90;;;;;;6177813;22;20005;-55
2023/11/29 10:28:10;;;;;;;11.32;5.68;;;2.60;99.90;;;;;;6177750;22;20067;-55
2023/11/29 10:30:36;;;;;;;16.08;6.45;;;2.70;99.90;;;;;;6177662;23;19997;-55
2023/11/29 10:33:04;;;;;;;14.60;6.97;;;2.70;99.90;;;;;;6177725;22;20013;-57
2023/11/29 10:35:33;;;;;;;15.93;5.55;;;2.60;99.90;;;;;;6177792;22;20017;-54
2023/11/29 10:38:07;;;;;;;16.85;6.07;;;2.70;99.90;;;;;;6177477;23;20005;-57
2023/11/29 10:40:33;;;;;;;14.35;5.78;;;2.70;99.90;;;;;;6177101;23;20001;-56
2023/11/29 10:43:03;;;;;;;12.45;5.75;;;2.70;99.90;;;;;;6178030;22;20054;-52
2023/11/29 10:45:30;;;;;;;19.08;6.63;;;2.80;99.90;;;;;;6177247;22;20001;-55
2023/11/29 10:47:58;;;;;;;22.63;7.13;;;2.80;99.90;;;;;;6176810;23;20080;-54
2023/11/29 10:50:25;;;;;;;32.80;10.13;;;2.90;99.90;;;;;;6176712;23;20005;-55
2023/11/29 10:52:51;;;;;;;19.25;6.00;;;2.90;99.90;;;;;;6281145;22;20009;-54
2023/11/29 10:55:19;;;;;;;16.88;6.45;;;2.90;99.90;;;;;;6177085;23;20094;-55
2023/11/29 10:57:57;;;;;;;10.93;4.05;;;2.80;99.90;;;;;;6177287;23;20267;-56
2023/11/29 11:00:26;;;;;;;10.90;4.30;;;2.80;99.90;;;;;;6176898;23;20341;-56
2023/11/29 11:02:52;;;;;;;8.45;4.78;;;2.80;99.90;;;;;;6195621;22;20021;-56
2023/11/29 11:05:22;;;;;;;9.65;4.72;;;2.80;99.90;;;;;;6177653;22;20033;-56
2023/11/29 11:07:49;;;;;;;9.40;4.97;;;2.80;99.90;;;;;;6176806;23;20005;-57
2023/11/29 11:10:15;;;;;;;9.35;4.75;;;2.80;99.90;;;;;;6177214;23;20008;-53
2023/11/29 11:12:42;;;;;;;9.73;4.43;;;2.80;99.90;;;;;;6176907;23;20024;-56
2023/11/29 11:15:20;;;;;;;7.03;3.83;;;2.80;99.90;;;;;;6177402;22;20117;-56
2023/11/29 11:18:01;;;;;;;10.60;4.95;;;2.80;99.90;;;;;;6177214;23;20073;-56
2023/11/29 11:20:41;;;;;;;14.98;4.05;;;2.80;99.90;;;;;;6176650;22;20003;-55
2023/11/29 11:23:07;;;;;;;7.60;3.92;;;2.80;99.90;;;;;;6177427;23;20080;-55
2023/11/29 11:25:35;;;;;;;14.93;4.57;;;2.80;99.90;;;;;;6177343;22;20036;-53
2023/11/29 11:28:00;;;;;;;7.40;4.13;;;2.70;99.90;;;;;;6177078;22;20004;-56
2023/11/29 11:30:28;;;;;;;13.88;5.50;;;2.70;99.90;;;;;;6177222;22;20002;-55
2023/11/29 11:33:00;;;;;;;7.05;4.45;;;2.70;99.90;;;;;;6282957;22;20437;-55
2023/11/29 11:35:34;;;;;;;8.48;4.85;;;2.60;99.90;;;;;;6179147;22;20432;-54
2023/11/29 11:38:03;;;;;;;8.98;4.53;;;2.60;99.90;;;;;;6178595;23;20005;-56
2023/11/29 11:40:31;;;;;;;10.40;4.78;;;2.60;99.90;;;;;;6178046;23;20001;-56
2023/11/29 11:43:00;;;;;;;10.32;4.15;;;2.60;99.90;;;;;;6177778;23;20001;-55
2023/11/29 11:45:37;;;;;;;6.97;4.40;;;2.70;99.90;;;;;;6177722;23;20058;-57
2023/11/29 11:48:07;;;;;;;10.32;4.38;;;2.80;99.90;;;;;;6178029;22;20009;-55
2023/11/29 11:50:33;;;;;;;12.30;5.40;;;2.80;99.90;;;;;;6177984;22;20061;-53
2023/11/29 11:52:59;;;;;;;9.45;4.82;;;2.80;99.90;;;;;;6177992;22;20451;-55
2023/11/29 11:55:26;;;;;;;7.53;4.20;;;2.80;99.90;;;;;;6177952;23;20005;-54
2023/11/29 11:57:52;;;;;;;8.93;4.93;;;2.80;99.90;;;;;;6177343;22;20005;-55
2023/11/29 12:00:20;;;;;;;7.13;4.93;;;2.90;99.90;;;;;;6177656;22;20059;-53
2023/11/29 12:02:46;;;;;;;12.60;5.80;;;2.90;99.90;;;;;;6182137;22;20032;-56
2023/11/29 12:05:12;;;;;;;10.48;5.25;;;2.90;99.90;;;;;;6191209;22;20008;-54
2023/11/29 12:07:45;;;;;;;11.88;5.15;;;2.90;99.90;;;;;;6177540;22;20004;-53
2023/11/29 12:10:12;;;;;;;10.02;4.65;;;2.90;99.90;;;;;;6280046;22;20002;-55
2023/11/29 12:12:38;;;;;;;10.32;5.20;;;2.90;99.90;;;;;;6178153;23;20006;-57
2023/11/29 12:15:05;;;;;;;7.60;4.55;;;2.80;99.90;;;;;;6178018;23;20005;-55
2023/11/29 12:17:35;;;;;;;7.45;4.15;;;2.80;99.90;;;;;;6177183;22;20016;-55
2023/11/29 12:20:04;;;;;;;8.13;4.93;;;2.70;99.90;;;;;;6176376;23;20082;-55
2023/11/29 12:22:30;;;;;;;11.13;4.35;;;2.60;99.90;;;;;;6178301;23;20005;-54
2023/11/29 12:24:57;;;;;;;6.65;4.28;;;2.50;99.90;;;;;;6176801;23;20054;-55
2023/11/29 12:27:26;;;;;;;14.43;4.68;;;2.50;99.90;;;;;;6177918;22;20001;-53
2023/11/29 12:29:57;;;;;;;14.35;5.93;;;2.50;99.90;;;;;;6177637;23;20016;-54
2023/11/29 12:32:26;;;;;;;15.40;8.75;;;2.40;99.90;;;;;;6178033;23;20075;-53
2023/11/29 12:34:52;;;;;;;10.73;5.43;;;2.40;99.90;;;;;;6178112;23;20009;-57
2023/11/29 12:37:18;;;;;;;12.48;5.53;;;2.50;99.90;;;;;;6178215;22;20076;-54
2023/11/29 12:39:45;;;;;;;12.88;6.30;;;2.40;99.90;;;;;;6177979;22;20366;-55